createdAt,value
2019-03-29T00:00:04.374Z,14.2
2019-03-29T00:15:04.494Z,14.2
2019-03-29T00:30:05.019Z,14.1
2019-03-29T00:45:04.274Z,14.1
2019-03-29T01:00:04.500Z,14
2019-03-29T01:15:04.777Z,13.9
2019-03-29T01:30:04.727Z,13.8
2019-03-29T01:45:04.511Z,13.7
2019-03-29T02:00:04.841Z,13.4
2019-03-29T02:15:04.184Z,13.3
2019-03-29T02:30:05.144Z,13
2019-03-29T02:45:04.101Z,12.9
2019-03-29T03:00:04.934Z,12.8
2019-03-29T03:15:04.157Z,12.6
2019-03-29T03:30:04.620Z,12.4
2019-03-29T03:45:04.914Z,12.3
2019-03-29T04:00:04.195Z,12.2
2019-03-29T04:15:04.999Z,12.1
2019-03-29T04:30:04.426Z,12
2019-03-29T04:45:04.678Z,11.8
2019-03-29T05:00:04.453Z,11.7
2019-03-29T05:15:04.675Z,11.6
2019-03-29T05:30:04.342Z,11.6
2019-03-29T05:45:04.201Z,11.5
2019-03-29T06:00:05.065Z,11.4
2019-03-29T06:15:04.348Z,11.5
2019-03-29T06:30:04.399Z,11.5
2019-03-29T06:45:04.657Z,11.6
2019-03-29T07:00:04.448Z,11.8
2019-03-29T07:15:04.795Z,12.1
2019-03-29T07:30:04.263Z,12.8
2019-03-29T07:45:04.026Z,13.3
2019-03-29T08:00:04.362Z,14.1
2019-03-29T08:15:04.155Z,14.9
2019-03-29T08:30:04.626Z,15.4
2019-03-29T08:45:04.371Z,16.3
2019-03-29T09:00:04.118Z,18.2
2019-03-29T09:15:04.522Z,19.7
2019-03-29T09:30:05.297Z,19.8
2019-03-29T09:45:04.134Z,20.6
2019-03-29T10:00:17.647Z,18
2019-03-29T10:15:04.759Z,16.8
2019-03-29T10:30:04.279Z,16.4
2019-03-29T10:45:04.529Z,16.2
2019-03-29T11:00:04.989Z,16.1
2019-03-29T11:15:06.564Z,16.2
2019-03-29T11:30:04.515Z,16.2
2019-03-29T11:45:04.767Z,16.3
2019-03-29T12:00:05.000Z,16.3
2019-03-29T12:15:04.784Z,16.4
2019-03-29T12:30:04.303Z,16.4
2019-03-29T12:45:04.588Z,16.5
2019-03-29T13:00:04.350Z,16.6
2019-03-29T13:15:04.094Z,16.7
2019-03-29T13:30:04.111Z,16.8
2019-03-29T13:45:04.468Z,16.9
2019-03-29T14:00:09.350Z,17.1
2019-03-29T14:15:04.609Z,17.2
2019-03-29T14:30:05.390Z,17.2
2019-03-29T14:45:04.499Z,17.3
2019-03-29T15:00:04.710Z,17.4
2019-03-29T15:15:06.197Z,17.4
2019-03-29T15:30:04.348Z,17.5
2019-03-29T15:45:04.584Z,17.5
2019-03-29T16:00:04.790Z,17.6
2019-03-29T16:15:04.749Z,17.6
2019-03-29T16:30:04.323Z,17.5
2019-03-29T16:45:04.527Z,17.5
2019-03-29T17:00:04.719Z,17.4
2019-03-29T17:15:05.001Z,17.3
2019-03-29T17:30:04.702Z,17.2
2019-03-29T17:45:04.937Z,17.1
2019-03-29T18:00:04.778Z,17
2019-03-29T18:15:04.126Z,16.9
2019-03-29T18:30:04.606Z,16.8
2019-03-29T18:45:04.910Z,16.7
2019-03-29T19:00:04.106Z,16.6
2019-03-29T19:15:04.872Z,16.4
2019-03-29T19:30:04.393Z,16.3
2019-03-29T19:45:04.153Z,16.1
2019-03-29T20:00:06.061Z,16
2019-03-29T20:15:04.851Z,16
2019-03-29T20:30:04.289Z,15.8
2019-03-29T20:45:04.568Z,15.7
2019-03-29T21:00:04.885Z,15.6
2019-03-29T21:15:04.133Z,15.4
2019-03-29T21:30:04.713Z,15.3
2019-03-29T21:45:05.006Z,15.2
2019-03-29T22:00:04.770Z,15.1
2019-03-29T22:15:04.021Z,15
2019-03-29T22:30:04.080Z,14.9
2019-03-29T22:45:04.334Z,14.7
2019-03-29T23:00:04.523Z,14.7
2019-03-29T23:15:04.773Z,14.5
2019-03-29T23:30:04.741Z,14.4
2019-03-29T23:45:04.511Z,14.3
